San Salvador, El Salvador

6:06 AM CST on February 23, 2017 (GMT -0600)
Ilopango International | | Change Station

Elev 2037 ft 13.70 °N, 89.12 °W | Updated 16 minutes ago

Partly Cloudy
Partly Cloudy
70 °F
Feels Like 70 °F
N
0
Wind Variable Wind from North

Today
High -- | Low -- °F
--% Chance of Precip.
Yesterday
High -- | Low -- °F
Precip. -- in
Pressure 29.92 in
Visibility 5.0 miles
Clouds Few 2000 ft
Dew Point 68 °F
Humidity 94%
Rainfall 0.00 in
Snow Depth Not available.
6:15 AM 6:03 PM
Waning Crescent, 11% visible
METAR MSSS 231150Z 00000KT 8000 2000NW BR FEW020 21/20 Q1013 A2994
Pressure 29.92 in
Visibility 5.0 miles
Clouds Few 2000 ft
Dew Point 68 °F
Humidity 94%
Rainfall 0.00 in
Snow Depth Not available.
6:15 AM 6:03 PM
Waning Crescent, 11% visible
METAR MSSS 231150Z 00000KT 8000 2000NW BR FEW020 21/20 Q1013 A2994

Get Your Daily Forecast Email!

Thanks for signing up!

Be on the lookout for a verification email in your inbox.

You'll start receiving the daily forecast at 8 AM.

×

10-Day Weather Forecast

No radar image for this location.
×

Almanac

Astronomy

Feb. 23, 2017 Rise Set
Actual Time
Civil Twilight
Nautical Twilight
Astronomical Twilight
Moon
Length of Visible Light
Length of Day
Tomorrow will be .
, % of the Moon is Illuminated

Today's Extremes

Country Highs Country Lows

Community

WunderPhotos

Upload Photos

1,962,540 photos uploaded!

WunderBlog® & News

Nearby

Air Quality

  Air Quality AQ Index Pollutant
Not available.

Snow Depth

Station Depth Elevation

Earthquake Activity

City Distance Mag. Time & Date
Minimum magnitude displayed is 2.5.

Coastal Water Temperatures

Place Temperature

Stations

Nearby Weather Stations

Station Location Temp. Windchill Dew Point Humidity Wind Precip. Elev Updated Type